Latest Weather Observations for Victoria River Downs

IDD60801

Issued at 11:31 pm CST Tuesday 12 December 2017 (issued every 30 minutes, with the page automatically refreshed every 10 minutes)

About weather observations | Map of weather stations | Latest weather observations for NT | Other Formats
Station Details ID: 014825 Name: VICTORIA RIVER DOWNS Lat: -16.40 Lon: 131.01 Height: 88.5 m
Data from the previous 72 hours. | See also: Recent months at Victoria River Downs
Date/Time
CST
Temp
°C
App
Temp
°C
Dew
Point
°C
Rel
Hum
%
Delta-T
°C
Wind Press
QNH
hPa
Press
MSL
hPa
Rain since
9am
mm
Dir  Spd
km/h
Gust
km/h
Spd
kts
Gust
kts
12/11:30pm 28.9 29.5 14.3 40 8.8 WNW 4 6 2 3 1005.8 - 0.0
12/11:00pm 29.7 29.5 13.0 35 10.0 WNW 6 7 3 4 1005.8 - 0.0
12/10:30pm 30.3 30.7 15.2 40 9.3 W 7 9 4 5 1005.7 - 0.0
12/10:00pm 31.6 30.7 11.4 29 11.8 WNW 7 7 4 4 1005.6 - 0.0
12/09:30pm 33.3 32.0 10.0 24 13.4 WNW 7 9 4 5 1005.4 - 0.0
12/09:00pm 34.6 32.9 9.8 22 14.4 NW 9 11 5 6 1005.3 1004.5 0.0
12/08:30pm 35.2 33.3 8.9 20 15.0 NNW 9 11 5 6 1004.9 - 0.0
12/08:00pm 34.9 33.6 10.0 22 14.4 NW 7 9 4 5 1004.8 - 0.0
12/07:30pm 36.4 34.7 9.8 20 15.5 NNW 9 13 5 7 1004.6 - 0.0
12/07:00pm 37.0 35.6 9.6 19 15.9 NNW 7 9 4 5 1004.4 - 0.0
12/06:30pm 38.8 37.8 10.2 18 16.9 W 6 7 3 4 1004.2 - 0.0
12/06:00pm 39.5 37.1 7.1 14 18.4 SW 9 13 5 7 1004.2 1003.4 0.0
12/05:30pm 40.6 38.2 6.8 13 19.2 S 9 15 5 8 1003.9 - 0.0
12/05:00pm 41.6 38.3 6.4 12 19.9 W 13 26 7 14 1004.0 - 0.0
12/04:30pm 41.8 39.7 6.6 12 20.0 W 7 15 4 8 1004.1 - 0.0
12/04:00pm 41.6 38.6 7.6 13 19.6 WSW 13 19 7 10 1004.3 - 0.0
12/03:30pm 41.1 38.1 6.0 12 19.7 SSE 11 15 6 8 1004.6 - 0.0
12/03:00pm 41.1 37.9 8.3 14 19.1 N 15 20 8 11 1005.0 1004.3 0.0
12/02:30pm 41.0 38.2 7.1 13 19.3 W 11 28 6 15 1005.4 - 0.0
12/02:00pm 40.7 38.3 6.9 13 19.2 NNE 9 13 5 7 1005.9 - 0.0
12/01:30pm 40.1 38.1 8.5 15 18.3 WNW 9 15 5 8 1006.4 - 0.0
12/01:00pm 40.1 38.4 8.5 15 18.3 NNE 7 17 4 9 1006.9 - 0.0
12/12:30pm 39.3 37.5 12.2 20 16.5 N 13 20 7 11 1007.7 - 0.0
12/12:00pm 39.5 38.5 14.5 23 15.8 N 13 24 7 13 1008.2 1007.7 0.0
12/11:30am 37.6 36.6 17.6 31 13.1 W 19 28 10 15 1008.5 - 0.0
12/11:00am 37.2 37.2 17.2 30 13.0 WNW 13 24 7 13 1009.1 - 0.0
12/10:30am 36.7 36.6 17.8 32 12.3 NW 15 30 8 16 1009.4 - 0.0
12/10:00am 35.1 34.9 18.6 37 10.8 NW 17 26 9 14 1009.7 - 0.0
12/09:30am 34.7 35.0 19.5 40 10.1 WNW 17 26 9 14 1010.0 - 0.0
12/09:00am 32.7 34.4 20.9 49 7.9 NNW 13 22 7 12 1010.0 1009.4 0.0
12/08:30am 31.7 33.7 21.5 54 6.9 NNW 13 19 7 10 1009.9 - 0.0
12/08:00am 30.6 33.5 21.7 59 6.0 N 9 15 5 8 1009.8 - 0.0
12/07:30am 28.8 31.5 21.3 64 5.0 ENE 9 11 5 6 1009.6 - 0.0
12/07:00am 26.7 28.9 20.3 68 4.2 ENE 9 11 5 6 1009.3 - 0.0
12/06:30am 25.3 27.8 20.3 74 3.3 ENE 7 7 4 4 1008.7 - 0.0
12/06:00am 24.9 28.5 19.7 73 3.4 CALM 0 0 0 0 1008.2 1007.5 0.0
12/05:30am 25.9 28.7 20.5 72 3.5 WNW 6 9 3 5 1007.7 - 0.0
12/05:00am 25.9 28.0 20.2 71 3.7 W 9 11 5 6 1007.5 - 0.0
12/04:30am 25.9 27.9 20.0 70 3.8 W 9 11 5 6 1007.3 - 0.0
12/04:00am 25.8 29.0 19.7 69 4.0 WSW 2 6 1 3 1007.2 - 0.0
12/03:30am 26.8 29.4 19.2 63 4.9 SSW 4 7 2 4 1007.2 - 0.0
12/03:00am 28.7 31.0 20.7 62 5.3 NW 9 13 5 7 1007.0 1006.4 0.0
12/02:30am 28.8 31.0 20.5 61 5.5 NW 9 11 5 6 1007.1 - 0.0
12/02:00am 29.4 31.6 20.5 58 5.9 NNW 9 15 5 8 1007.1 - 0.0
12/01:30am 29.3 31.1 19.6 56 6.4 NNW 9 13 5 7 1007.3 - 0.0
12/01:00am 29.8 31.4 19.2 53 6.9 NW 9 15 5 8 1007.7 - 0.0
12/12:30am 30.4 32.2 18.8 50 7.5 NW 7 9 4 5 1008.0 - 0.0
12/12:00am 31.8 33.2 18.7 45 8.5 NNW 9 11 5 6 1008.5 1008.0 0.0
 
Date/Time
CST
Temp
°C
App
Temp
°C
Dew
Point
°C
Rel
Hum
%
Delta-T
°C
Wind Press
QNH
hPa
Press
MSL
hPa
Rain since
9am
mm
Dir  Spd
km/h
Gust
km/h
Spd
kts
Gust
kts
11/11:30pm 32.1 33.6 19.0 45 8.6 NNW 9 15 5 8 1008.8 - 0.0
11/11:00pm 31.8 32.6 17.3 42 9.3 NNE 9 11 5 6 1008.8 - 0.0
11/10:30pm 33.1 34.1 17.7 40 9.9 N 9 15 5 8 1008.3 - 0.0
11/10:00pm 33.3 32.0 11.2 26 13.0 NE 9 13 5 7 1008.1 - 0.0
11/09:30pm 35.2 32.1 3.7 14 16.6 NNE 9 13 5 7 1007.9 - 0.0
11/09:00pm 35.0 32.1 4.5 15 16.3 ESE 9 13 5 7 1007.1 1006.5 0.0
11/08:30pm 35.7 32.7 4.1 14 16.8 ESE 9 11 5 6 1006.7 - 0.0
11/08:00pm 36.8 33.6 2.8 12 17.8 ESE 9 11 5 6 1006.5 - 0.0
11/07:30pm 38.7 35.5 3.0 11 19.0 SE 9 13 5 7 1006.2 - 0.0
11/07:00pm 39.8 36.1 2.5 10 19.8 SE 11 19 6 10 1005.6 - 0.0
11/06:30pm 40.5 36.2 3.0 10 20.1 ESE 15 26 8 14 1005.1 - 0.0
11/06:00pm 41.6 38.2 3.8 10 20.7 SE 11 17 6 9 1004.5 1003.7 0.0
11/05:30pm 41.7 37.9 3.9 10 20.7 SE 13 19 7 10 1004.4 - 0.0
11/05:00pm 41.7 38.7 3.9 10 20.7 SE 9 19 5 10 1004.4 - 0.0
11/04:30pm 41.7 37.6 2.4 9 21.0 ESE 13 19 7 10 1004.4 - 0.0
11/04:00pm 41.8 38.9 2.5 9 21.1 S 7 19 4 10 1004.6 - 0.0
11/03:30pm 42.2 38.5 4.3 10 20.9 SE 13 20 7 11 1004.9 - 0.0
11/03:00pm 42.1 36.7 2.7 9 21.3 ENE 20 30 11 16 1005.3 1004.7 0.0
11/02:30pm 42.3 38.3 2.8 9 21.3 ESE 13 30 7 16 1005.7 - 0.0
11/02:00pm 41.5 37.4 2.3 9 20.9 ENE 13 30 7 16 1006.3 - 0.0
11/01:30pm 41.3 35.7 3.6 10 20.5 E 22 32 12 17 1007.0 - 0.0
11/01:00pm 41.0 36.8 1.9 9 20.7 ESE 13 22 7 12 1007.4 - 0.0
11/12:30pm 39.9 36.7 5.1 12 19.2 E 11 19 6 10 1008.0 - 0.0
11/12:00pm 39.2 36.8 6.8 14 18.3 N 9 22 5 12 1008.8 1008.3 0.0
11/11:30am 38.9 37.0 7.6 15 17.8 SSW 7 13 4 7 1009.4 - 0.0
11/11:00am 37.5 35.8 10.0 19 16.1 SW 9 15 5 8 1010.1 - 0.0
11/10:30am 36.7 36.3 14.1 26 14.0 W 9 15 5 8 1010.5 - 0.0
11/10:00am 35.5 35.0 15.8 31 12.5 W 13 19 7 10 1011.0 - 0.0
11/09:30am 34.3 34.5 15.7 32 11.7 SW 9 13 5 7 1011.6 - 0.0
11/09:00am 33.5 32.1 8.9 22 13.9 WSW 6 11 3 6 1011.6 1010.8 0.0
11/08:30am 32.4 29.9 6.6 20 14.0 W 9 11 5 6 1011.2 - 0.0
11/08:21am 30.9 29.5 9.7 27 12.0 W 7 9 4 5 1011.2 - 0.0
11/08:00am 29.1 28.7 11.2 33 10.3 SSW 4 7 2 4 1011.1 - 0.0
11/07:30am 26.7 26.2 12.0 40 8.5 W 6 9 3 5 1010.7 - 0.0
11/07:00am 23.6 22.9 11.3 46 6.9 WSW 6 9 3 5 1010.4 - 0.0
11/06:30am 22.4 21.8 10.5 47 6.6 W 4 7 2 4 1010.0 - 0.0
11/06:00am 22.3 20.7 10.1 46 6.7 NW 9 9 5 5 1009.5 1008.8 0.0
11/05:30am 22.2 22.8 11.9 52 5.8 CALM 0 0 0 0 1009.1 - 0.0
11/05:00am 23.0 23.3 10.8 46 6.8 CALM 0 0 0 0 1008.8 - 0.0
11/04:30am 22.9 23.2 11.0 47 6.6 CALM 0 0 0 0 1008.6 - 0.0
11/04:00am 23.8 23.6 10.5 43 7.4 W 2 7 1 4 1008.5 - 0.0
11/03:30am 24.2 24.6 11.2 44 7.3 CALM 0 0 0 0 1008.4 - 0.0
11/03:00am 24.8 25.5 12.1 45 7.3 CALM 0 7 0 4 1008.6 1008.1 0.0
11/02:30am 24.9 23.8 10.0 39 8.2 W 6 7 3 4 1008.8 - 0.0
11/02:00am 26.0 25.4 7.6 31 9.8 CALM 0 0 0 0 1008.9 - 0.0
11/01:30am 27.2 26.8 8.1 30 10.4 CALM 0 0 0 0 1009.0 - 0.0
11/01:00am 28.3 26.1 6.4 25 11.6 WNW 7 9 4 5 1009.3 - 0.0
11/12:30am 29.7 28.4 7.6 25 12.0 N 4 9 2 5 1009.6 - 0.0
11/12:00am 31.7 28.9 5.3 19 14.0 N 9 15 5 8 1009.7 1009.1 0.0
 
Date/Time
CST
Temp
°C
App
Temp
°C
Dew
Point
°C
Rel
Hum
%
Delta-T
°C
Wind Press
QNH
hPa
Press
MSL
hPa
Rain since
9am
mm
Dir  Spd
km/h
Gust
km/h
Spd
kts
Gust
kts
10/11:30pm 26.9 26.3 7.4 29 10.4 CALM 0 0 0 0 1009.4 - 0.0
10/11:00pm 28.0 26.4 7.8 28 10.9 S 6 7 3 4 1009.4 - 0.0
10/10:30pm 29.7 27.9 7.0 24 12.2 SSE 6 7 3 4 1009.4 - 0.0
10/10:00pm 31.9 29.2 3.8 17 14.5 SSE 7 7 4 4 1009.3 - 0.0
10/09:30pm 32.9 30.2 3.8 16 15.1 SSE 7 11 4 6 1009.0 - 0.0
10/09:00pm 35.0 31.7 2.5 13 16.8 SE 9 11 5 6 1008.6 1008.0 0.0
10/08:30pm 35.6 32.4 3.0 13 17.0 SE 9 13 5 7 1008.4 - 0.0
10/08:00pm 37.0 33.8 2.9 12 17.9 ESE 9 13 5 7 1008.0 - 0.0
10/07:30pm 38.3 34.7 2.7 11 18.8 ESE 11 19 6 10 1007.5 - 0.0
10/07:00pm 38.8 35.2 3.1 11 19.0 ESE 11 15 6 8 1007.1 - 0.0
10/06:30pm 39.5 35.9 4.8 12 19.0 E 13 19 7 10 1006.7 - 0.0
10/06:00pm 40.3 37.0 6.6 13 19.1 E 13 28 7 15 1006.3 1005.5 0.0
10/05:30pm 40.6 36.8 5.7 12 19.5 ESE 15 22 8 12 1006.1 - 0.0
10/05:00pm 40.9 37.1 5.9 12 19.6 ESE 15 28 8 15 1005.9 - 0.0
10/04:30pm 40.7 37.1 6.9 13 19.2 E 15 26 8 14 1005.8 - 0.0
10/04:00pm 40.9 38.0 8.1 14 19.0 E 13 24 7 13 1005.9 - 0.0
10/03:30pm 40.1 36.4 9.5 16 18.0 ENE 19 26 10 14 1006.3 - 0.0
10/03:00pm 41.2 38.2 9.4 15 18.8 E 15 32 8 17 1006.8 1006.2 0.0
10/02:30pm 40.6 37.1 10.8 17 17.9 ENE 20 28 11 15 1007.3 - 0.0
10/02:00pm 40.4 38.1 10.6 17 17.8 E 13 26 7 14 1007.8 - 0.0
10/01:30pm 39.6 37.5 12.4 20 16.6 SSE 15 28 8 15 1008.5 - 0.0
10/01:00pm 39.5 36.7 13.1 21 16.3 E 20 33 11 18 1009.0 - 0.0
10/12:30pm 38.0 37.4 14.5 24 14.7 E 11 19 6 10 1009.5 - 0.0
10/12:00pm 38.7 38.5 15.7 25 14.7 NE 11 32 6 17 1010.2 1009.6 0.0
10/11:30am 37.4 36.9 15.8 27 13.8 ENE 13 22 7 12 1010.6 - 0.0
10/11:00am 36.7 37.1 16.3 30 13.0 E 9 15 5 8 1011.0 - 0.0
10/10:30am 36.4 36.9 16.5 30 12.8 NE 9 13 5 7 1011.6 - 0.0
10/10:00am 34.8 36.1 17.1 35 11.4 N 6 13 3 7 1011.8 - 0.0
10/09:30am 34.3 35.6 17.5 36 10.8 SE 7 9 4 5 1012.0 - 0.0
10/09:00am 33.4 33.7 17.1 37 10.4 ENE 11 13 6 7 1012.0 1011.3 0.0
10/08:30am 32.7 33.1 17.3 39 9.9 ENE 11 15 6 8 1011.9 - 0.0
10/08:00am 31.3 32.4 17.9 44 8.6 ENE 9 13 5 7 1011.6 - 0.0
10/07:30am 29.9 32.4 19.9 55 6.6 E 6 9 3 5 1011.1 - 0.0
10/07:00am 28.2 31.2 20.0 61 5.4 ESE 4 9 2 5 1010.8 - 0.0
10/06:30am 26.9 29.6 20.3 67 4.3 SE 6 7 3 4 1010.4 - 0.0
10/06:00am 26.8 30.3 21.1 71 3.8 NE 4 9 2 5 1009.6 1008.9 0.0
10/05:30am 26.8 30.8 20.6 69 4.1 CALM 0 0 0 0 1009.1 - 0.0
10/05:00am 26.7 30.0 19.1 63 4.9 CALM 0 0 0 0 1008.4 - 0.0
10/04:30am 26.9 30.3 19.3 63 4.9 CALM 0 0 0 0 1008.1 - 0.0
10/04:00am 27.4 30.7 19.2 61 5.3 CALM 0 0 0 0 1008.2 - 0.0
10/03:30am 27.9 31.5 19.7 61 5.4 CALM 0 0 0 0 1008.2 - 0.0
10/03:00am 28.6 31.9 19.0 56 6.2 CALM 0 0 0 0 1008.2 1007.7 0.0
10/02:30am 29.0 32.1 18.7 53 6.7 CALM 0 0 0 0 1008.3 - 0.0
10/02:00am 29.2 32.1 18.3 51 7.0 CALM 0 0 0 0 1008.6 - 0.0
10/01:30am 29.7 31.8 18.2 50 7.4 NNW 4 7 2 4 1008.7 - 0.0
10/01:00am 30.1 32.7 17.5 46 8.0 CALM 0 0 0 0 1009.0 - 0.0
10/12:30am 30.6 32.0 17.3 45 8.5 N 6 7 3 4 1009.4 - 0.0
10/12:00am 31.1 33.4 16.7 42 9.1 CALM 0 9 0 5 1009.6 1009.1 0.0

Other Formats:

Comma delimited format used in spreadsheet applications
http://www.bom.gov.au/fwo/IDD60801/IDD60801.94232.axf

JavaScript Object Notation format (JSON) in row-major order
http://www.bom.gov.au/fwo/IDD60801/IDD60801.94232.json